Terminal Aerodrome Forecast
Issued by NWS Huntsville, AL

Home | Current Version | Previous Version | Text Only | Print | Product List | Glossary On
Versions: 1 2 3 4 5 6 7 8 9 10 11 12 13 14 15 16 17 18 19 20 21 22 23 24 25 26 27 28 29 30 31 32
951
FTUS44 KHUN 011721
TAFMSL
TAF
KMSL 011721Z 0118/0218 23009G14KT P6SM VCTS BKN025CB OVC040
      TEMPO 0121/0201 3SM TSRA BKN025CB
     FM020200 VRB04KT P6SM VCSH BKN025
     FM020900 17004KT P6SM VCSH OVC020
      TEMPO 0210/0214 5SM TSRA BR OVC025CB
     FM021400 20006KT 5SM TSRA OVC025CB
      AMD NOT SKED=

USA.gov is the U.S. government's official web portal to all federal, state and local government web resources and services.